Time;durP1;ratioP1;P1;durP2;ratioP2;P2;SDS_P1;SDS_P2;PMS_P1;PMS_P2;Temp;Humidity;BMP_temperature;BMP_pressure;BME280_temperature;BME280_humidity;BME280_pressure;Samples;Min_cycle;Max_cycle;Signal;HPM_P1;HPM_P2
2023/08/31 00:00:09;;;;;;;0.00;0.00;;;;;;;;;;1721320;28;20321;-62
2023/08/31 00:01:03;;;;;;;0.00;0.00;;;;;;;;;;1719773;28;20340;-62
2023/08/31 00:01:54;;;;;;;0.00;0.00;;;;;;;;;;1720253;28;20650;-62
2023/08/31 00:02:45;;;;;;;0.00;0.00;;;;;;;;;;1718981;28;20204;-62
2023/08/31 00:03:38;;;;;;;0.00;0.00;;;;;;;;;;1719702;28;20290;-62
2023/08/31 00:04:29;;;;;;;0.00;0.00;;;;;;;;;;1724153;28;20243;-62
2023/08/31 00:05:22;;;;;;;0.00;0.00;;;;;;;;;;1718700;28;20744;-62
2023/08/31 00:06:13;;;;;;;0.00;0.00;;;;;;;;;;1721722;28;20213;-61
2023/08/31 00:07:04;;;;;;;0.00;0.00;;;;;;;;;;1720652;28;20201;-61
2023/08/31 00:07:56;;;;;;;0.00;0.00;;;;;;;;;;1719774;28;20296;-61
2023/08/31 00:08:47;;;;;;;0.00;0.00;;;;;;;;;;1719039;28;20653;-61
2023/08/31 00:09:39;;;;;;;0.00;0.00;;;;;;;;;;1711933;28;20202;-61
2023/08/31 00:10:34;;;;;;;0.00;0.00;;;;;;;;;;1704351;28;20221;-63
2023/08/31 00:11:27;;;;;;;0.00;0.00;;;;;;;;;;1709332;28;20260;-61
2023/08/31 00:12:18;;;;;;;0.00;0.00;;;;;;;;;;1705271;28;20217;-62
2023/08/31 00:13:10;;;;;;;0.00;0.00;;;;;;;;;;1704893;28;20214;-61
2023/08/31 00:14:01;;;;;;;0.00;0.00;;;;;;;;;;1704780;28;20222;-62
2023/08/31 00:14:52;;;;;;;0.00;0.00;;;;;;;;;;1705002;28;20216;-61
2023/08/31 00:15:45;;;;;;;0.00;0.00;;;;;;;;;;1703866;28;20601;-62
2023/08/31 00:16:36;;;;;;;0.00;0.00;;;;;;;;;;1704674;28;20210;-61
2023/08/31 00:17:28;;;;;;;0.00;0.00;;;;;;;;;;1705142;28;20214;-61
2023/08/31 00:18:20;;;;;;;0.00;0.00;;;;;;;;;;1704711;28;20211;-62
2023/08/31 00:19:11;;;;;;;0.00;0.00;;;;;;;;;;1705164;28;20215;-62
2023/08/31 00:20:05;;;;;;;0.00;0.00;;;;;;;;;;1704832;28;20226;-61
2023/08/31 00:20:57;;;;;;;0.00;0.00;;;;;;;;;;1704718;28;20245;-62
2023/08/31 00:21:49;;;;;;;0.00;0.00;;;;;;;;;;1707603;28;20236;-60
2023/08/31 00:22:40;;;;;;;0.00;0.00;;;;;;;;;;1706535;28;20198;-62
2023/08/31 00:23:32;;;;;;;0.00;0.00;;;;;;;;;;1706210;28;20257;-61
2023/08/31 00:24:28;;;;;;;0.00;0.00;;;;;;;;;;1704983;28;20215;-61
2023/08/31 00:25:19;;;;;;;0.00;0.00;;;;;;;;;;1704342;28;20211;-62
2023/08/31 00:26:11;;;;;;;0.00;0.00;;;;;;;;;;1707774;28;20220;-62
2023/08/31 00:27:03;;;;;;;0.00;0.00;;;;;;;;;;1707161;28;20213;-62
2023/08/31 00:27:56;;;;;;;0.00;0.00;;;;;;;;;;1705904;28;20249;-62
2023/08/31 00:28:47;;;;;;;0.00;0.00;;;;;;;;;;1705227;28;20206;-61
2023/08/31 00:29:39;;;;;;;0.00;0.00;;;;;;;;;;1712206;28;20644;-61
2023/08/31 00:30:31;;;;;;;0.00;0.00;;;;;;;;;;1703578;28;20234;-61
2023/08/31 00:31:23;;;;;;;0.00;0.00;;;;;;;;;;1704869;28;20222;-61
2023/08/31 00:32:14;;;;;;;0.00;0.00;;;;;;;;;;1704521;28;20293;-62
2023/08/31 00:33:06;;;;;;;0.00;0.00;;;;;;;;;;1704445;28;20656;-62
2023/08/31 00:33:57;;;;;;;0.00;0.00;;;;;;;;;;1705120;28;20217;-62
2023/08/31 00:34:48;;;;;;;0.00;0.00;;;;;;;;;;1705095;28;20202;-62
2023/08/31 00:35:46;;;;;;;0.00;0.00;;;;;;;;;;1703878;28;21106;-62
2023/08/31 00:36:38;;;;;;;0.00;0.00;;;;;;;;;;1708947;28;20241;-62
2023/08/31 00:37:30;;;;;;;0.00;0.00;;;;;;;;;;1706414;28;20273;-62
2023/08/31 00:38:21;;;;;;;0.00;0.00;;;;;;;;;;1704917;28;20634;-62
2023/08/31 00:39:13;;;;;;;0.00;0.00;;;;;;;;;;1704918;28;20214;-61
2023/08/31 00:40:06;;;;;;;0.00;0.00;;;;;;;;;;1704691;28;20238;-61
2023/08/31 00:40:59;;;;;;;0.00;0.00;;;;;;;;;;1704976;28;20787;-62
2023/08/31 00:41:50;;;;;;;0.00;0.00;;;;;;;;;;1707390;28;20559;-60
2023/08/31 00:42:44;;;;;;;0.00;0.00;;;;;;;;;;1706144;28;20236;-61
2023/08/31 00:43:35;;;;;;;0.00;0.00;;;;;;;;;;1704407;28;20685;-61
2023/08/31 00:44:27;;;;;;;0.00;0.00;;;;;;;;;;1705025;28;20202;-61
2023/08/31 00:45:18;;;;;;;0.00;0.00;;;;;;;;;;1703461;28;20727;-61
2023/08/31 00:46:11;;;;;;;0.00;0.00;;;;;;;;;;1707596;28;20282;-61
2023/08/31 00:47:02;;;;;;;0.00;0.00;;;;;;;;;;1705753;28;20682;-61
2023/08/31 00:47:54;;;;;;;0.00;0.00;;;;;;;;;;1702768;28;20689;-61
2023/08/31 00:48:46;;;;;;;0.00;0.00;;;;;;;;;;1705105;28;20653;-61
2023/08/31 00:49:37;;;;;;;0.00;0.00;;;;;;;;;;1705009;28;20226;-61
2023/08/31 00:50:29;;;;;;;0.00;0.00;;;;;;;;;;1703577;28;20526;-62
2023/08/31 00:51:21;;;;;;;0.00;0.00;;;;;;;;;;1708916;28;20213;-61
2023/08/31 00:52:12;;;;;;;0.00;0.00;;;;;;;;;;1704830;28;20236;-61
2023/08/31 00:53:05;;;;;;;0.00;0.00;;;;;;;;;;1706075;28;20210;-61
2023/08/31 00:53:59;;;;;;;0.00;0.00;;;;;;;;;;1705050;28;20523;-62
2023/08/31 00:54:51;;;;;;;0.00;0.00;;;;;;;;;;1705287;28;20202;-60
2023/08/31 00:55:44;;;;;;;0.00;0.00;;;;;;;;;;1700316;28;20638;-60
2023/08/31 00:56:35;;;;;;;0.00;0.00;;;;;;;;;;1708560;28;20585;-61
2023/08/31 00:57:27;;;;;;;0.00;0.00;;;;;;;;;;1704889;28;20210;-60
2023/08/31 00:58:21;;;;;;;0.00;0.00;;;;;;;;;;1705620;28;20206;-61
2023/08/31 00:59:14;;;;;;;0.00;0.00;;;;;;;;;;1704962;28;20215;-61
2023/08/31 01:00:06;;;;;;;0.00;0.00;;;;;;;;;;1704742;28;20289;-60
2023/08/31 01:01:03;;;;;;;0.00;0.00;;;;;;;;;;1704532;28;20253;-60
2023/08/31 01:02:01;;;;;;;0.00;0.00;;;;;;;;;;1707047;28;20470;-60
2023/08/31 01:02:58;;;;;;;0.00;0.00;;;;;;;;;;1705064;28;20214;-62
2023/08/31 01:03:51;;;;;;;0.00;0.00;;;;;;;;;;1705059;28;20214;-61
2023/08/31 01:04:47;;;;;;;0.00;0.00;;;;;;;;;;1698961;29;20648;-61
2023/08/31 01:05:41;;;;;;;0.00;0.00;;;;;;;;;;1703287;28;20266;-61
2023/08/31 01:06:41;;;;;;;0.00;0.00;;;;;;;;;;1704559;28;20796;-61
2023/08/31 01:07:35;;;;;;;0.00;0.00;;;;;;;;;;1704783;28;20280;-61
2023/08/31 01:08:42;;;;;;;0.00;0.00;;;;;;;;;;1705770;28;20293;-61
2023/08/31 01:09:37;;;;;;;0.00;0.00;;;;;;;;;;1704903;28;20221;-61
2023/08/31 01:10:32;;;;;;;0.00;0.00;;;;;;;;;;1715959;28;20603;-61
2023/08/31 01:11:31;;;;;;;0.00;0.00;;;;;;;;;;1721905;28;20679;-61
2023/08/31 01:12:29;;;;;;;0.00;0.00;;;;;;;;;;1719521;28;20395;-61
2023/08/31 01:13:24;;;;;;;0.00;0.00;;;;;;;;;;1719026;28;20220;-62
2023/08/31 01:14:18;;;;;;;0.00;0.00;;;;;;;;;;1721497;28;20243;-61
2023/08/31 01:15:11;;;;;;;0.00;0.00;;;;;;;;;;1720857;28;20247;-61
2023/08/31 01:16:06;;;;;;;0.00;0.00;;;;;;;;;;1718422;28;20240;-61
2023/08/31 01:16:59;;;;;;;0.00;0.00;;;;;;;;;;1720447;28;20293;-60
2023/08/31 01:17:52;;;;;;;0.00;0.00;;;;;;;;;;1718580;28;20206;-61
2023/08/31 01:18:44;;;;;;;0.00;0.00;;;;;;;;;;1717382;28;20212;-60
2023/08/31 01:19:43;;;;;;;0.00;0.00;;;;;;;;;;1724314;28;20235;-61
2023/08/31 01:20:39;;;;;;;0.00;0.00;;;;;;;;;;1716912;28;20283;-61
2023/08/31 01:21:35;;;;;;;0.00;0.00;;;;;;;;;;1721983;28;20227;-61
2023/08/31 01:22:31;;;;;;;0.00;0.00;;;;;;;;;;1719442;28;20221;-61
2023/08/31 01:23:26;;;;;;;0.00;0.00;;;;;;;;;;1717842;28;20351;-61
2023/08/31 01:24:19;;;;;;;0.00;0.00;;;;;;;;;;1721892;28;20319;-61
2023/08/31 01:25:12;;;;;;;0.00;0.00;;;;;;;;;;1720664;28;20220;-61
2023/08/31 01:26:04;;;;;;;0.00;0.00;;;;;;;;;;1718173;28;20271;-61
2023/08/31 01:26:55;;;;;;;0.00;0.00;;;;;;;;;;1720215;28;20267;-60
2023/08/31 01:27:47;;;;;;;0.00;0.00;;;;;;;;;;1718914;28;20291;-61
2023/08/31 01:28:39;;;;;;;0.00;0.00;;;;;;;;;;1719024;28;20209;-61
2023/08/31 01:29:30;;;;;;;0.00;0.00;;;;;;;;;;1721748;28;20281;-61
2023/08/31 01:30:22;;;;;;;0.00;0.00;;;;;;;;;;1721418;28;20227;-61
2023/08/31 01:31:13;;;;;;;0.00;0.00;;;;;;;;;;1721399;28;20586;-61
2023/08/31 01:32:07;;;;;;;0.00;0.00;;;;;;;;;;1719584;28;20204;-61
2023/08/31 01:32:59;;;;;;;0.00;0.00;;;;;;;;;;1719251;28;20795;-62
2023/08/31 01:33:51;;;;;;;0.00;0.00;;;;;;;;;;1718484;28;20216;-61
2023/08/31 01:34:43;;;;;;;0.00;0.00;;;;;;;;;;1724641;28;20204;-61
2023/08/31 01:35:37;;;;;;;0.00;0.00;;;;;;;;;;1720505;28;20251;-60
2023/08/31 01:36:36;;;;;;;0.00;0.00;;;;;;;;;;1721855;28;20205;-61
2023/08/31 01:37:30;;;;;;;0.00;0.00;;;;;;;;;;1719427;28;20209;-61
2023/08/31 01:38:25;;;;;;;0.00;0.00;;;;;;;;;;1719268;28;20213;-61
2023/08/31 01:39:22;;;;;;;0.00;0.00;;;;;;;;;;1721662;28;20204;-61
2023/08/31 01:40:17;;;;;;;0.00;0.00;;;;;;;;;;1722461;28;20311;-60
2023/08/31 01:41:12;;;;;;;0.00;0.00;;;;;;;;;;1720501;28;20271;-62
2023/08/31 01:42:04;;;;;;;0.00;0.00;;;;;;;;;;1719858;28;20213;-61
2023/08/31 01:42:55;;;;;;;0.00;0.00;;;;;;;;;;1718591;28;20236;-60
2023/08/31 01:43:49;;;;;;;0.00;0.00;;;;;;;;;;1718241;28;20689;-61
2023/08/31 01:44:40;;;;;;;0.00;0.00;;;;;;;;;;1724865;28;20463;-61
2023/08/31 01:45:34;;;;;;;0.00;0.00;;;;;;;;;;1720442;28;20204;-60
2023/08/31 01:46:25;;;;;;;0.00;0.00;;;;;;;;;;1721583;28;20239;-61
2023/08/31 01:47:17;;;;;;;0.00;0.00;;;;;;;;;;1719278;28;20367;-61
2023/08/31 01:48:09;;;;;;;0.00;0.00;;;;;;;;;;1715716;28;20206;-61
2023/08/31 01:49:00;;;;;;;0.00;0.00;;;;;;;;;;1718198;28;20212;-61
2023/08/31 01:49:52;;;;;;;0.00;0.00;;;;;;;;;;1718338;28;20658;-61
2023/08/31 01:50:44;;;;;;;0.00;0.00;;;;;;;;;;1720559;28;20391;-62
2023/08/31 01:51:35;;;;;;;0.00;0.00;;;;;;;;;;1721553;28;20295;-62
2023/08/31 01:52:26;;;;;;;0.00;0.00;;;;;;;;;;1718996;28;20220;-61
2023/08/31 01:53:18;;;;;;;0.00;0.00;;;;;;;;;;1718924;28;20208;-61
2023/08/31 01:54:09;;;;;;;0.00;0.00;;;;;;;;;;1720612;28;20215;-62
2023/08/31 01:55:03;;;;;;;0.00;0.00;;;;;;;;;;1723150;28;20303;-61
2023/08/31 01:55:55;;;;;;;0.00;0.00;;;;;;;;;;1718902;28;20580;-62
2023/08/31 01:56:46;;;;;;;0.00;0.00;;;;;;;;;;1721455;28;20702;-61
2023/08/31 01:57:38;;;;;;;0.00;0.00;;;;;;;;;;1719069;28;20232;-61
2023/08/31 01:58:29;;;;;;;0.00;0.00;;;;;;;;;;1718797;28;20687;-61
2023/08/31 01:59:21;;;;;;;0.00;0.00;;;;;;;;;;1722047;28;20204;-61
2023/08/31 02:00:14;;;;;;;0.00;0.00;;;;;;;;;;1722160;28;20236;-61
2023/08/31 02:01:05;;;;;;;0.00;0.00;;;;;;;;;;1720015;28;20343;-61
2023/08/31 02:01:56;;;;;;;0.00;0.00;;;;;;;;;;1720220;28;20208;-61
2023/08/31 02:02:48;;;;;;;0.00;0.00;;;;;;;;;;1718835;28;20684;-61
2023/08/31 02:03:39;;;;;;;0.00;0.00;;;;;;;;;;1718645;28;20224;-61
2023/08/31 02:04:31;;;;;;;0.00;0.00;;;;;;;;;;1723030;28;20215;-61
2023/08/31 02:05:22;;;;;;;0.00;0.00;;;;;;;;;;1720553;28;20208;-61
2023/08/31 02:06:14;;;;;;;0.00;0.00;;;;;;;;;;1717981;28;20212;-61
2023/08/31 02:07:06;;;;;;;0.00;0.00;;;;;;;;;;1717584;28;20239;-61
2023/08/31 02:07:57;;;;;;;0.00;0.00;;;;;;;;;;1718574;28;20211;-60
2023/08/31 02:08:49;;;;;;;0.00;0.00;;;;;;;;;;1718147;28;20216;-61
2023/08/31 02:09:40;;;;;;;0.00;0.00;;;;;;;;;;1723771;28;20343;-61
2023/08/31 02:10:31;;;;;;;0.00;0.00;;;;;;;;;;1719648;28;20236;-61
2023/08/31 02:11:24;;;;;;;0.00;0.00;;;;;;;;;;1721352;28;20575;-61
2023/08/31 02:12:16;;;;;;;0.00;0.00;;;;;;;;;;1718614;28;20219;-61
2023/08/31 02:13:09;;;;;;;0.00;0.00;;;;;;;;;;1718441;28;20577;-61
2023/08/31 02:14:00;;;;;;;0.00;0.00;;;;;;;;;;1718570;28;20912;-61
2023/08/31 02:14:51;;;;;;;0.00;0.00;;;;;;;;;;1723515;28;20516;-61
2023/08/31 02:15:43;;;;;;;0.00;0.00;;;;;;;;;;1719815;28;20615;-61
2023/08/31 02:16:34;;;;;;;0.00;0.00;;;;;;;;;;1721128;28;20222;-61
2023/08/31 02:17:25;;;;;;;0.00;0.00;;;;;;;;;;1713879;28;20197;-60
2023/08/31 02:18:17;;;;;;;0.00;0.00;;;;;;;;;;1714667;28;20635;-61
2023/08/31 02:19:08;;;;;;;0.00;0.00;;;;;;;;;;1719866;28;20228;-61
2023/08/31 02:20:01;;;;;;;0.00;0.00;;;;;;;;;;1722126;28;20323;-60
2023/08/31 02:20:53;;;;;;;0.00;0.00;;;;;;;;;;1719451;28;20713;-61
2023/08/31 02:21:44;;;;;;;0.00;0.00;;;;;;;;;;1720813;28;20299;-61
2023/08/31 02:22:35;;;;;;;0.00;0.00;;;;;;;;;;1718568;28;20656;-61
2023/08/31 02:23:28;;;;;;;0.00;0.00;;;;;;;;;;1718156;28;20205;-61
2023/08/31 02:24:19;;;;;;;0.00;0.00;;;;;;;;;;1721258;28;20212;-61
2023/08/31 02:25:10;;;;;;;0.00;0.00;;;;;;;;;;1722322;28;20219;-60
2023/08/31 02:26:02;;;;;;;0.00;0.00;;;;;;;;;;1718078;28;20628;-61
2023/08/31 02:26:54;;;;;;;0.00;0.00;;;;;;;;;;1720390;28;20212;-61
2023/08/31 02:27:45;;;;;;;0.00;0.00;;;;;;;;;;1718000;28;20293;-61
2023/08/31 02:28:37;;;;;;;0.00;0.00;;;;;;;;;;1718259;28;20215;-61
2023/08/31 02:29:28;;;;;;;0.00;0.00;;;;;;;;;;1717888;28;20244;-60
2023/08/31 02:30:20;;;;;;;0.00;0.00;;;;;;;;;;1719276;28;20228;-60
2023/08/31 02:31:12;;;;;;;0.00;0.00;;;;;;;;;;1720139;28;20583;-61
2023/08/31 02:32:05;;;;;;;0.00;0.00;;;;;;;;;;1718879;28;20209;-61
2023/08/31 02:32:56;;;;;;;0.00;0.00;;;;;;;;;;1718016;28;20633;-60
2023/08/31 02:33:48;;;;;;;0.00;0.00;;;;;;;;;;1718298;28;20283;-61
2023/08/31 02:34:40;;;;;;;0.00;0.00;;;;;;;;;;1723774;28;20258;-60
2023/08/31 02:35:32;;;;;;;0.00;0.00;;;;;;;;;;1719182;28;20240;-61
2023/08/31 02:36:24;;;;;;;0.00;0.00;;;;;;;;;;1720642;28;20210;-62
2023/08/31 02:37:15;;;;;;;0.00;0.00;;;;;;;;;;1718312;28;20639;-62
2023/08/31 02:38:07;;;;;;;0.00;0.00;;;;;;;;;;1717975;28;20209;-60
2023/08/31 02:38:59;;;;;;;0.00;0.00;;;;;;;;;;1717996;28;20216;-61
2023/08/31 02:39:50;;;;;;;0.00;0.00;;;;;;;;;;1723157;28;20235;-60
2023/08/31 02:40:41;;;;;;;0.00;0.00;;;;;;;;;;1719546;28;20940;-61
2023/08/31 02:41:34;;;;;;;0.00;0.00;;;;;;;;;;1720869;28;20552;-61
2023/08/31 02:42:26;;;;;;;0.00;0.00;;;;;;;;;;1715418;28;20241;-61
2023/08/31 02:43:17;;;;;;;0.00;0.00;;;;;;;;;;1716275;28;20650;-60
2023/08/31 02:44:09;;;;;;;0.00;0.00;;;;;;;;;;1719439;28;20673;-61
2023/08/31 02:45:00;;;;;;;0.00;0.00;;;;;;;;;;1722034;28;20248;-61
2023/08/31 02:45:59;;;;;;;0.00;0.00;;;;;;;;;;1719073;28;20335;-61
2023/08/31 02:46:51;;;;;;;0.00;0.00;;;;;;;;;;1715297;28;20228;-61
2023/08/31 02:47:42;;;;;;;0.00;0.00;;;;;;;;;;1717376;28;20219;-61
2023/08/31 02:48:33;;;;;;;0.00;0.00;;;;;;;;;;1715676;28;20287;-61
2023/08/31 02:49:25;;;;;;;0.00;0.00;;;;;;;;;;1721675;28;20292;-61
2023/08/31 02:50:16;;;;;;;0.00;0.00;;;;;;;;;;1720678;28;22690;-61
2023/08/31 02:51:08;;;;;;;0.00;0.00;;;;;;;;;;1719282;28;20209;-61
2023/08/31 02:52:00;;;;;;;0.10;0.10;;;;;;;;;;1719374;28;20220;-61
2023/08/31 02:52:51;;;;;;;0.00;0.00;;;;;;;;;;1714159;28;20220;-61
2023/08/31 02:53:43;;;;;;;0.00;0.00;;;;;;;;;;1718119;28;20201;-61
2023/08/31 02:54:34;;;;;;;0.00;0.00;;;;;;;;;;1723134;28;20212;-61
2023/08/31 02:55:25;;;;;;;0.00;0.00;;;;;;;;;;1719704;28;20204;-61
2023/08/31 02:56:17;;;;;;;0.00;0.00;;;;;;;;;;1721285;28;20233;-61
2023/08/31 02:57:08;;;;;;;0.00;0.00;;;;;;;;;;1719215;28;20738;-61
2023/08/31 02:58:03;;;;;;;0.00;0.00;;;;;;;;;;1719193;28;20747;-61
2023/08/31 02:58:54;;;;;;;0.00;0.00;;;;;;;;;;1719062;28;20331;-61
2023/08/31 02:59:46;;;;;;;0.00;0.00;;;;;;;;;;1724602;28;20806;-61
2023/08/31 03:00:42;;;;;;;0.00;0.00;;;;;;;;;;1720844;28;20338;-61
2023/08/31 03:01:33;;;;;;;0.00;0.00;;;;;;;;;;1721960;28;20741;-61
2023/08/31 03:02:25;;;;;;;0.00;0.00;;;;;;;;;;1716542;28;20660;-61
2023/08/31 03:03:16;;;;;;;0.00;0.00;;;;;;;;;;1719295;28;20209;-61
2023/08/31 03:04:09;;;;;;;0.00;0.00;;;;;;;;;;1720422;28;20232;-61
2023/08/31 03:05:01;;;;;;;0.00;0.00;;;;;;;;;;1723286;28;20205;-61
2023/08/31 03:05:56;;;;;;;0.00;0.00;;;;;;;;;;1720098;28;20315;-61
2023/08/31 03:06:48;;;;;;;0.00;0.00;;;;;;;;;;1721867;28;20291;-61
2023/08/31 03:07:39;;;;;;;0.00;0.00;;;;;;;;;;1719425;28;20217;-61
2023/08/31 03:08:30;;;;;;;0.00;0.00;;;;;;;;;;1719276;28;20264;-61
2023/08/31 03:09:23;;;;;;;0.00;0.00;;;;;;;;;;1722080;28;20204;-61
2023/08/31 03:10:14;;;;;;;0.00;0.00;;;;;;;;;;1721566;28;20228;-61
2023/08/31 03:11:05;;;;;;;0.00;0.00;;;;;;;;;;1720782;28;20236;-61
2023/08/31 03:11:57;;;;;;;0.00;0.00;;;;;;;;;;1720784;28;20209;-61
2023/08/31 03:12:48;;;;;;;0.00;0.00;;;;;;;;;;1718732;28;20221;-62
2023/08/31 03:13:41;;;;;;;0.00;0.00;;;;;;;;;;1718904;28;20215;-61
2023/08/31 03:14:33;;;;;;;0.00;0.00;;;;;;;;;;1723653;28;20208;-60
2023/08/31 03:15:24;;;;;;;0.00;0.00;;;;;;;;;;1721516;28;20212;-61
2023/08/31 03:16:15;;;;;;;0.00;0.00;;;;;;;;;;1720960;28;20236;-61
2023/08/31 03:17:07;;;;;;;0.00;0.00;;;;;;;;;;1719948;28;20216;-61
2023/08/31 03:17:59;;;;;;;0.00;0.00;;;;;;;;;;1718874;28;20213;-61
2023/08/31 03:18:51;;;;;;;0.00;0.00;;;;;;;;;;1719007;28;20633;-61
2023/08/31 03:19:42;;;;;;;0.00;0.00;;;;;;;;;;1724539;28;20216;-61
2023/08/31 03:20:34;;;;;;;0.00;0.00;;;;;;;;;;1719934;28;20247;-61
2023/08/31 03:21:25;;;;;;;0.00;0.00;;;;;;;;;;1721838;28;20686;-61
2023/08/31 03:22:17;;;;;;;0.00;0.00;;;;;;;;;;1717892;28;20255;-61
2023/08/31 03:23:09;;;;;;;0.00;0.00;;;;;;;;;;1719179;28;20217;-61
2023/08/31 03:24:01;;;;;;;0.00;0.00;;;;;;;;;;1718955;28;20208;-60
2023/08/31 03:24:52;;;;;;;0.00;0.00;;;;;;;;;;1724326;28;20572;-61
2023/08/31 03:25:45;;;;;;;0.00;0.00;;;;;;;;;;1720451;28;20239;-61
2023/08/31 03:26:36;;;;;;;0.00;0.00;;;;;;;;;;1721461;28;20212;-61
2023/08/31 03:27:28;;;;;;;0.00;0.00;;;;;;;;;;1719185;28;20212;-61
2023/08/31 03:28:19;;;;;;;0.00;0.00;;;;;;;;;;1718704;28;20213;-61
2023/08/31 03:29:12;;;;;;;0.00;0.00;;;;;;;;;;1720278;28;20241;-61
2023/08/31 03:30:04;;;;;;;0.00;0.00;;;;;;;;;;1722927;28;20233;-61
2023/08/31 03:30:55;;;;;;;0.00;0.00;;;;;;;;;;1719916;28;20241;-61
2023/08/31 03:31:47;;;;;;;0.00;0.00;;;;;;;;;;1721527;28;20553;-60
2023/08/31 03:32:39;;;;;;;0.00;0.00;;;;;;;;;;1718965;28;20311;-60
2023/08/31 03:33:30;;;;;;;0.00;0.00;;;;;;;;;;1718575;28;20213;-61
2023/08/31 03:34:22;;;;;;;0.00;0.00;;;;;;;;;;1721675;28;20193;-61
2023/08/31 03:35:13;;;;;;;0.00;0.00;;;;;;;;;;1722303;28;20762;-61
2023/08/31 03:36:05;;;;;;;0.00;0.00;;;;;;;;;;1719900;28;20236;-61
2023/08/31 03:36:57;;;;;;;0.00;0.00;;;;;;;;;;1720844;28;20209;-60
2023/08/31 03:37:50;;;;;;;0.00;0.00;;;;;;;;;;1719212;28;20668;-61
2023/08/31 03:38:41;;;;;;;0.00;0.00;;;;;;;;;;1718718;28;20267;-61
2023/08/31 03:39:33;;;;;;;0.00;0.00;;;;;;;;;;1723145;28;20263;-61
2023/08/31 03:40:24;;;;;;;0.00;0.00;;;;;;;;;;1721140;28;20232;-61
2023/08/31 03:41:15;;;;;;;0.00;0.00;;;;;;;;;;1720783;28;20227;-61
2023/08/31 03:42:07;;;;;;;0.00;0.00;;;;;;;;;;1719172;28;20609;-61
2023/08/31 03:42:58;;;;;;;0.00;0.00;;;;;;;;;;1716672;28;20561;-61
2023/08/31 03:43:50;;;;;;;0.00;0.00;;;;;;;;;;1718521;28;20631;-61
2023/08/31 03:44:43;;;;;;;0.00;0.00;;;;;;;;;;1724218;28;20204;-62
2023/08/31 03:45:35;;;;;;;0.00;0.00;;;;;;;;;;1719861;28;20240;-61
2023/08/31 03:46:26;;;;;;;0.00;0.00;;;;;;;;;;1721483;28;20204;-61
2023/08/31 03:47:18;;;;;;;0.00;0.00;;;;;;;;;;1718605;28;20201;-61
2023/08/31 03:48:09;;;;;;;0.00;0.00;;;;;;;;;;1715416;28;20298;-61
2023/08/31 03:49:01;;;;;;;0.00;0.00;;;;;;;;;;1718582;28;20215;-60
2023/08/31 03:49:52;;;;;;;0.00;0.00;;;;;;;;;;1724176;28;20594;-61
2023/08/31 03:50:43;;;;;;;0.00;0.00;;;;;;;;;;1717329;28;20237;-61
2023/08/31 03:51:36;;;;;;;0.00;0.00;;;;;;;;;;1718375;28;20208;-61
2023/08/31 03:52:27;;;;;;;0.00;0.00;;;;;;;;;;1718861;28;20232;-61
2023/08/31 03:53:18;;;;;;;0.00;0.00;;;;;;;;;;1718261;28;20252;-61
2023/08/31 03:54:10;;;;;;;0.00;0.00;;;;;;;;;;1719942;28;20347;-61
2023/08/31 03:55:01;;;;;;;0.00;0.00;;;;;;;;;;1722767;28;20553;-60
2023/08/31 03:55:52;;;;;;;0.00;0.00;;;;;;;;;;1720097;28;20335;-61
2023/08/31 03:56:44;;;;;;;0.00;0.00;;;;;;;;;;1721394;28;20735;-61
2023/08/31 03:57:35;;;;;;;0.00;0.00;;;;;;;;;;1718642;28;20213;-62
2023/08/31 03:58:27;;;;;;;0.00;0.00;;;;;;;;;;1718885;28;20516;-61
2023/08/31 03:59:18;;;;;;;0.00;0.00;;;;;;;;;;1720954;28;20840;-61
2023/08/31 04:00:12;;;;;;;0.00;0.00;;;;;;;;;;1721667;28;20279;-61
2023/08/31 04:01:05;;;;;;;0.00;0.00;;;;;;;;;;1719620;28;20244;-61
2023/08/31 04:01:56;;;;;;;0.00;0.00;;;;;;;;;;1720702;28;20267;-61
2023/08/31 04:02:48;;;;;;;0.00;0.00;;;;;;;;;;1718819;28;20652;-61
2023/08/31 04:03:39;;;;;;;0.00;0.00;;;;;;;;;;1718252;28;20224;-61
2023/08/31 04:04:31;;;;;;;0.00;0.00;;;;;;;;;;1722718;28;20204;-61
2023/08/31 04:05:23;;;;;;;0.00;0.00;;;;;;;;;;1720967;28;20211;-61
2023/08/31 04:06:14;;;;;;;0.00;0.00;;;;;;;;;;1719960;28;20668;-61
2023/08/31 04:07:06;;;;;;;0.00;0.00;;;;;;;;;;1719155;28;20205;-62
2023/08/31 04:07:57;;;;;;;0.00;0.00;;;;;;;;;;1718867;28;20209;-61
2023/08/31 04:08:50;;;;;;;0.00;0.00;;;;;;;;;;1718175;28;20209;-61
2023/08/31 04:09:41;;;;;;;0.00;0.00;;;;;;;;;;1723397;28;20210;-61
2023/08/31 04:10:32;;;;;;;0.00;0.00;;;;;;;;;;1719686;28;20621;-61
2023/08/31 04:11:24;;;;;;;0.00;0.00;;;;;;;;;;1721299;28;20216;-62
2023/08/31 04:12:15;;;;;;;0.00;0.00;;;;;;;;;;1718410;28;20217;-61
2023/08/31 04:13:07;;;;;;;0.00;0.00;;;;;;;;;;1718222;28;20233;-61
2023/08/31 04:13:58;;;;;;;0.00;0.00;;;;;;;;;;1718521;28;20228;-61
2023/08/31 04:14:49;;;;;;;0.00;0.00;;;;;;;;;;1723931;28;20212;-62
2023/08/31 04:15:43;;;;;;;0.00;0.00;;;;;;;;;;1719852;28;20228;-61
2023/08/31 04:16:34;;;;;;;0.00;0.00;;;;;;;;;;1720941;28;20212;-61
2023/08/31 04:17:25;;;;;;;0.00;0.00;;;;;;;;;;1721725;28;20251;-61
2023/08/31 04:18:18;;;;;;;0.00;0.00;;;;;;;;;;1722748;28;20204;-61
2023/08/31 04:19:09;;;;;;;0.00;0.00;;;;;;;;;;1719499;28;20739;-61
2023/08/31 04:20:00;;;;;;;0.00;0.00;;;;;;;;;;1722917;28;20695;-61
2023/08/31 04:20:52;;;;;;;0.00;0.00;;;;;;;;;;1719872;28;20723;-61
2023/08/31 04:21:44;;;;;;;0.00;0.00;;;;;;;;;;1720909;28;20216;-61
2023/08/31 04:22:35;;;;;;;0.00;0.00;;;;;;;;;;1721269;28;20770;-61
2023/08/31 04:23:27;;;;;;;0.00;0.00;;;;;;;;;;1718272;28;20223;-61
2023/08/31 04:24:18;;;;;;;0.00;0.00;;;;;;;;;;1720520;28;20221;-61
2023/08/31 04:25:09;;;;;;;0.00;0.00;;;;;;;;;;1722213;28;20205;-61
2023/08/31 04:26:01;;;;;;;0.00;0.00;;;;;;;;;;1719646;28;20236;-62
2023/08/31 04:26:52;;;;;;;0.00;0.00;;;;;;;;;;1718558;28;20588;-61
2023/08/31 04:27:45;;;;;;;0.00;0.00;;;;;;;;;;1724047;28;20254;-61
2023/08/31 04:28:37;;;;;;;0.00;0.00;;;;;;;;;;1720322;28;20928;-61
2023/08/31 04:29:29;;;;;;;0.00;0.00;;;;;;;;;;1722104;28;20204;-61
2023/08/31 04:30:20;;;;;;;0.00;0.00;;;;;;;;;;1720831;28;20233;-61
2023/08/31 04:31:13;;;;;;;0.00;0.00;;;;;;;;;;1719613;28;20205;-61
2023/08/31 04:32:05;;;;;;;0.00;0.00;;;;;;;;;;1719420;28;20212;-61
2023/08/31 04:32:56;;;;;;;0.00;0.00;;;;;;;;;;1725352;28;20211;-61
2023/08/31 04:33:48;;;;;;;0.00;0.00;;;;;;;;;;1718742;28;20205;-61
2023/08/31 04:34:39;;;;;;;0.00;0.00;;;;;;;;;;1723336;28;20212;-61
2023/08/31 04:35:31;;;;;;;0.00;0.00;;;;;;;;;;1719403;28;20330;-61
2023/08/31 04:36:23;;;;;;;0.00;0.00;;;;;;;;;;1721059;28;20201;-61
2023/08/31 04:37:14;;;;;;;0.00;0.00;;;;;;;;;;1719424;28;20260;-61
2023/08/31 04:38:05;;;;;;;0.00;0.00;;;;;;;;;;1725012;28;20714;-61
2023/08/31 04:38:57;;;;;;;0.00;0.00;;;;;;;;;;1718377;28;20679;-61
2023/08/31 04:39:48;;;;;;;0.00;0.00;;;;;;;;;;1723348;28;20580;-61
2023/08/31 04:40:40;;;;;;;0.00;0.00;;;;;;;;;;1719580;28;20242;-61
2023/08/31 04:41:32;;;;;;;0.00;0.00;;;;;;;;;;1720559;28;20741;-60
2023/08/31 04:42:23;;;;;;;0.00;0.00;;;;;;;;;;1721110;28;20212;-60
2023/08/31 04:43:14;;;;;;;0.00;0.00;;;;;;;;;;1718184;28;20216;-60
2023/08/31 04:44:07;;;;;;;0.00;0.00;;;;;;;;;;1716551;28;20219;-61
2023/08/31 04:44:58;;;;;;;0.00;0.00;;;;;;;;;;1723108;28;20204;-61
2023/08/31 04:45:50;;;;;;;0.00;0.00;;;;;;;;;;1719031;28;20239;-60
2023/08/31 04:46:42;;;;;;;0.00;0.00;;;;;;;;;;1720692;28;20920;-61
2023/08/31 04:47:34;;;;;;;0.00;0.00;;;;;;;;;;1722339;28;20215;-61
2023/08/31 04:48:25;;;;;;;0.00;0.00;;;;;;;;;;1714985;28;20215;-60
2023/08/31 04:49:18;;;;;;;0.00;0.00;;;;;;;;;;1720036;28;20213;-60
2023/08/31 04:50:09;;;;;;;0.00;0.00;;;;;;;;;;1721883;28;20375;-61
2023/08/31 04:51:03;;;;;;;0.00;0.00;;;;;;;;;;1718885;28;20321;-61
2023/08/31 04:51:54;;;;;;;0.00;0.00;;;;;;;;;;1716133;28;20247;-61
2023/08/31 04:52:46;;;;;;;0.00;0.00;;;;;;;;;;1721598;28;20215;-61
2023/08/31 04:53:38;;;;;;;0.00;0.00;;;;;;;;;;1717941;28;20630;-60
2023/08/31 04:54:30;;;;;;;0.00;0.00;;;;;;;;;;1721728;28;20207;-61
2023/08/31 04:55:22;;;;;;;0.00;0.00;;;;;;;;;;1720418;28;20211;-61
2023/08/31 04:56:13;;;;;;;0.00;0.00;;;;;;;;;;1719199;28;20584;-60
2023/08/31 04:57:07;;;;;;;0.00;0.00;;;;;;;;;;1719045;28;20747;-61
2023/08/31 04:57:58;;;;;;;0.00;0.00;;;;;;;;;;1725185;28;20220;-61
2023/08/31 04:58:49;;;;;;;0.00;0.00;;;;;;;;;;1718536;28;20259;-61
2023/08/31 04:59:41;;;;;;;0.00;0.00;;;;;;;;;;1722895;28;20204;-61
2023/08/31 05:00:32;;;;;;;0.00;0.00;;;;;;;;;;1719009;28;20247;-60
2023/08/31 05:01:23;;;;;;;0.00;0.00;;;;;;;;;;1718002;28;20695;-61
2023/08/31 05:02:17;;;;;;;0.00;0.00;;;;;;;;;;1719325;28;20207;-61
2023/08/31 05:03:08;;;;;;;0.00;0.00;;;;;;;;;;1724322;28;20208;-61
2023/08/31 05:03:59;;;;;;;0.00;0.00;;;;;;;;;;1718228;28;20200;-60
2023/08/31 05:04:51;;;;;;;0.00;0.00;;;;;;;;;;1723171;28;20204;-61
2023/08/31 05:05:42;;;;;;;0.00;0.00;;;;;;;;;;1719020;28;21063;-62
2023/08/31 05:06:33;;;;;;;0.00;0.00;;;;;;;;;;1720149;28;20208;-61
2023/08/31 05:07:25;;;;;;;0.00;0.00;;;;;;;;;;1720773;28;20565;-61
2023/08/31 05:08:16;;;;;;;0.00;0.00;;;;;;;;;;1722577;28;20222;-61
2023/08/31 05:09:09;;;;;;;0.00;0.00;;;;;;;;;;1718595;28;20201;-61
2023/08/31 05:10:00;;;;;;;0.00;0.00;;;;;;;;;;1722045;28;20275;-61
2023/08/31 05:10:53;;;;;;;0.00;0.00;;;;;;;;;;1718880;28;20240;-61
2023/08/31 05:11:44;;;;;;;0.00;0.00;;;;;;;;;;1720249;28;20228;-61
2023/08/31 05:12:36;;;;;;;0.00;0.00;;;;;;;;;;1722099;28;20211;-61